Time;durP1;ratioP1;P1;durP2;ratioP2;P2;SDS_P1;SDS_P2;PMS_P1;PMS_P2;Temp;Humidity;BMP_temperature;BMP_pressure;BME280_temperature;BME280_humidity;BME280_pressure;Samples;Min_cycle;Max_cycle;Signal;HPM_P1;HPM_P2
2021/08/15 00:01:03;;;;;;;11.93;8.43;;;18.80;99.90;;;;;;5028100;28;20436;-38
2021/08/15 00:03:29;;;;;;;11.02;8.20;;;18.80;99.90;;;;;;5028520;28;20524;-42
2021/08/15 00:05:55;;;;;;;9.48;7.05;;;18.80;99.90;;;;;;5027727;28;20120;-41
2021/08/15 00:08:20;;;;;;;10.98;7.45;;;18.90;99.90;;;;;;5028805;28;20026;-42
2021/08/15 00:10:46;;;;;;;8.23;6.50;;;18.90;99.90;;;;;;5028823;28;20026;-39
2021/08/15 00:13:11;;;;;;;9.40;7.00;;;18.90;99.90;;;;;;5027171;28;20489;-41
2021/08/15 00:15:37;;;;;;;12.75;8.70;;;18.80;99.90;;;;;;5029242;28;20021;-39
2021/08/15 00:18:03;;;;;;;12.48;9.73;;;18.80;99.90;;;;;;5032115;28;20060;-39
2021/08/15 00:20:28;;;;;;;10.85;8.15;;;18.70;99.90;;;;;;5031895;28;20496;-40
2021/08/15 00:22:55;;;;;;;11.90;8.35;;;18.70;99.90;;;;;;5031733;28;20025;-36
2021/08/15 00:25:20;;;;;;;10.63;7.03;;;18.60;99.90;;;;;;5031566;28;20572;-41
2021/08/15 00:27:46;;;;;;;9.75;7.38;;;18.60;99.90;;;;;;5031478;28;20045;-42
2021/08/15 00:30:17;;;;;;;8.02;6.28;;;18.60;99.90;;;;;;5032650;28;20027;-41
2021/08/15 00:32:46;;;;;;;9.90;7.10;;;18.60;99.90;;;;;;5032066;28;20216;-39
2021/08/15 00:35:12;;;;;;;8.68;6.50;;;18.50;99.90;;;;;;5031715;28;20026;-40
2021/08/15 00:37:38;;;;;;;11.88;7.00;;;18.50;99.90;;;;;;5031355;28;20303;-40
2021/08/15 00:40:05;;;;;;;10.27;6.93;;;18.50;99.90;;;;;;5030767;28;20052;-37
2021/08/15 00:42:31;;;;;;;11.02;6.80;;;18.50;99.90;;;;;;5031624;28;20477;-40
2021/08/15 00:44:57;;;;;;;8.77;6.10;;;18.50;99.90;;;;;;5020034;28;20021;-40
2021/08/15 00:47:23;;;;;;;8.35;6.53;;;18.50;99.90;;;;;;5031314;28;20365;-43
2021/08/15 00:49:48;;;;;;;8.20;6.40;;;18.50;99.90;;;;;;5031529;28;20435;-35
2021/08/15 00:52:14;;;;;;;8.32;6.57;;;18.50;99.90;;;;;;5031837;28;20044;-40
2021/08/15 00:54:39;;;;;;;9.68;7.28;;;18.50;99.90;;;;;;5031206;28;20051;-38
2021/08/15 00:57:08;;;;;;;13.95;11.15;;;18.60;99.90;;;;;;5032143;28;20402;-39
2021/08/15 00:59:42;;;;;;;9.70;7.70;;;18.60;99.90;;;;;;5031687;28;20033;-40
2021/08/15 01:02:08;;;;;;;12.23;7.28;;;18.70;99.90;;;;;;5030597;28;20028;-38
2021/08/15 01:04:36;;;;;;;9.55;6.90;;;18.80;99.90;;;;;;5030334;28;20021;-39
2021/08/15 01:07:04;;;;;;;8.82;6.68;;;18.80;99.90;;;;;;5031513;28;20091;-41
2021/08/15 01:09:31;;;;;;;9.23;6.40;;;18.80;99.90;;;;;;5030542;28;20415;-36
2021/08/15 01:11:57;;;;;;;8.73;6.20;;;18.80;99.90;;;;;;5030965;28;20135;-39
2021/08/15 01:14:22;;;;;;;8.82;6.50;;;18.90;99.90;;;;;;5030334;28;20116;-41
2021/08/15 01:16:48;;;;;;;8.35;5.90;;;18.90;99.90;;;;;;5029119;28;20104;-39
2021/08/15 01:19:14;;;;;;;8.68;6.25;;;18.90;99.90;;;;;;5030421;28;20014;-42
2021/08/15 01:21:47;;;;;;;9.90;6.22;;;18.90;99.90;;;;;;5030228;28;20108;-39
2021/08/15 01:24:14;;;;;;;9.98;6.85;;;18.80;99.90;;;;;;5061629;28;20496;-41
2021/08/15 01:26:43;;;;;;;8.27;6.63;;;18.80;99.90;;;;;;5028670;28;20617;-38
2021/08/15 01:29:09;;;;;;;8.25;5.57;;;18.80;99.90;;;;;;5029578;28;20104;-39
2021/08/15 01:31:35;;;;;;;9.10;6.82;;;18.70;99.90;;;;;;5029216;28;20156;-40
2021/08/15 01:34:00;;;;;;;7.85;5.75;;;18.70;99.90;;;;;;5029118;28;20098;-40
2021/08/15 01:36:26;;;;;;;9.15;6.57;;;18.60;99.90;;;;;;5029151;28;20436;-41
2021/08/15 01:38:51;;;;;;;9.57;7.03;;;18.60;99.90;;;;;;5029118;28;20068;-38
2021/08/15 01:41:18;;;;;;;10.55;7.38;;;18.60;99.90;;;;;;5030206;28;20025;-41
2021/08/15 01:44:00;;;;;;;10.75;7.55;;;18.50;99.90;;;;;;5027725;28;20279;-39
2021/08/15 01:46:29;;;;;;;9.73;7.18;;;18.50;99.90;;;;;;5028942;28;20014;-41
2021/08/15 01:48:56;;;;;;;11.27;8.15;;;18.50;99.90;;;;;;5028888;28;20030;-38
2021/08/15 01:51:22;;;;;;;11.75;8.50;;;18.50;99.90;;;;;;5029827;28;20053;-40
2021/08/15 01:53:54;;;;;;;14.02;8.68;;;18.50;99.90;;;;;;5029141;28;20029;-37
2021/08/15 01:56:20;;;;;;;12.48;7.60;;;18.40;99.90;;;;;;5029461;28;20025;-38
2021/08/15 01:58:46;;;;;;;10.13;7.30;;;18.40;99.90;;;;;;5028824;28;20385;-42
2021/08/15 02:01:16;;;;;;;9.82;6.82;;;18.40;99.90;;;;;;5029120;28;20108;-36
2021/08/15 02:03:42;;;;;;;8.40;6.35;;;18.40;99.90;;;;;;5029213;28;20029;-41
2021/08/15 02:06:08;;;;;;;9.88;6.43;;;18.40;99.90;;;;;;5028728;28;20097;-39
2021/08/15 02:08:34;;;;;;;11.23;6.85;;;18.40;99.90;;;;;;5029415;28;20464;-41
2021/08/15 02:10:59;;;;;;;7.60;6.00;;;18.40;99.90;;;;;;5028193;28;20045;-38
2021/08/15 02:13:25;;;;;;;9.85;6.15;;;18.40;99.90;;;;;;4994109;28;1031225;-38
2021/08/15 02:15:50;;;;;;;8.18;6.22;;;18.30;99.90;;;;;;5029335;28;20013;-36
2021/08/15 02:18:16;;;;;;;8.32;6.35;;;18.30;99.90;;;;;;5029772;28;20044;-41
2021/08/15 02:20:41;;;;;;;8.45;5.90;;;18.30;99.90;;;;;;5028939;28;20385;-38
2021/08/15 02:23:07;;;;;;;9.35;6.18;;;18.30;99.90;;;;;;5029131;28;20018;-40
2021/08/15 02:25:33;;;;;;;8.15;6.30;;;18.30;99.90;;;;;;5029439;28;20026;-43
2021/08/15 02:27:59;;;;;;;9.73;6.43;;;18.30;99.90;;;;;;5029098;28;20041;-41
2021/08/15 02:30:25;;;;;;;10.20;6.47;;;18.30;99.90;;;;;;5030722;28;20025;-41
2021/08/15 02:32:52;;;;;;;8.63;5.97;;;18.30;99.90;;;;;;5029061;28;20022;-40
2021/08/15 02:35:18;;;;;;;9.38;5.93;;;18.30;99.90;;;;;;5030334;28;20028;-41
2021/08/15 02:37:47;;;;;;;10.27;6.30;;;18.30;99.90;;;;;;5028661;28;20373;-38
2021/08/15 02:40:15;;;;;;;8.70;6.30;;;18.30;99.90;;;;;;5029507;28;20029;-34
2021/08/15 02:42:42;;;;;;;8.65;5.57;;;18.20;99.90;;;;;;5029441;28;20060;-42
2021/08/15 02:45:11;;;;;;;9.70;5.97;;;18.20;99.90;;;;;;5029611;28;20022;-40
2021/08/15 02:47:37;;;;;;;10.18;6.30;;;18.10;99.90;;;;;;5028708;28;20017;-39
2021/08/15 02:50:04;;;;;;;9.18;5.70;;;18.10;99.90;;;;;;5029069;28;20033;-38
2021/08/15 02:52:30;;;;;;;8.85;6.57;;;18.10;99.90;;;;;;5029234;28;20033;-37
2021/08/15 02:54:56;;;;;;;7.22;6.32;;;18.10;99.90;;;;;;5028746;28;20029;-40
2021/08/15 02:57:22;;;;;;;8.80;6.35;;;18.00;99.90;;;;;;5029487;28;20068;-42
2021/08/15 02:59:48;;;;;;;9.55;6.53;;;18.00;99.90;;;;;;5028162;28;20033;-41
2021/08/15 03:02:15;;;;;;;9.40;6.40;;;18.00;99.90;;;;;;5029040;28;20040;-39
2021/08/15 03:04:42;;;;;;;11.20;6.32;;;18.00;99.90;;;;;;5028898;28;20074;-37
2021/08/15 03:07:08;;;;;;;7.60;5.80;;;18.00;99.90;;;;;;5029173;28;20491;-37
2021/08/15 03:09:34;;;;;;;9.15;6.40;;;18.00;99.90;;;;;;5029231;28;20061;-37
2021/08/15 03:11:59;;;;;;;9.18;6.18;;;18.00;99.90;;;;;;5028657;28;20536;-38
2021/08/15 03:14:25;;;;;;;9.23;6.13;;;18.00;99.90;;;;;;5029440;28;20030;-39
2021/08/15 03:16:51;;;;;;;10.88;6.25;;;18.00;99.90;;;;;;5028539;28;20165;-39
2021/08/15 03:19:17;;;;;;;7.47;5.78;;;17.90;99.90;;;;;;5029364;28;20465;-39
2021/08/15 03:21:43;;;;;;;8.43;5.43;;;17.90;99.90;;;;;;5029201;28;20014;-39
2021/08/15 03:24:09;;;;;;;8.90;6.53;;;17.90;99.90;;;;;;5028569;28;20033;-39
2021/08/15 03:26:41;;;;;;;8.15;5.85;;;17.90;99.90;;;;;;5029506;28;20523;-37
2021/08/15 03:29:06;;;;;;;8.48;5.95;;;17.80;99.90;;;;;;5028362;28;20029;-39
2021/08/15 03:31:32;;;;;;;8.13;5.47;;;17.80;99.90;;;;;;5029259;28;20091;-36
2021/08/15 03:33:58;;;;;;;7.97;5.38;;;17.80;99.90;;;;;;5028637;28;20044;-38
2021/08/15 03:36:24;;;;;;;8.02;5.65;;;17.70;99.90;;;;;;5028585;28;20047;-39
2021/08/15 03:38:49;;;;;;;7.90;5.60;;;17.70;99.90;;;;;;5026753;28;20057;-39
2021/08/15 03:41:15;;;;;;;7.68;5.65;;;17.70;99.90;;;;;;5028921;28;20060;-37
2021/08/15 03:43:40;;;;;;;8.55;5.70;;;17.70;99.90;;;;;;5028421;28;20499;-38
2021/08/15 03:46:06;;;;;;;8.60;6.40;;;17.70;99.90;;;;;;5028687;28;20025;-37
2021/08/15 03:48:32;;;;;;;9.85;6.10;;;17.70;99.90;;;;;;5028762;28;20029;-42
2021/08/15 03:50:57;;;;;;;8.40;5.82;;;17.70;99.90;;;;;;5025724;28;20014;-39
2021/08/15 03:53:23;;;;;;;10.13;6.15;;;17.70;99.90;;;;;;5009823;28;20110;-39
2021/08/15 03:55:48;;;;;;;7.55;5.70;;;17.70;99.90;;;;;;5027847;28;20017;-40
2021/08/15 03:58:17;;;;;;;8.75;5.28;;;17.70;99.90;;;;;;5028709;28;20066;-42
2021/08/15 04:00:43;;;;;;;12.77;5.35;;;17.60;99.90;;;;;;5028294;28;20029;-40
2021/08/15 04:03:13;;;;;;;8.27;5.53;;;17.60;99.90;;;;;;5028435;28;20377;-40
2021/08/15 04:05:40;;;;;;;7.55;5.57;;;17.60;99.90;;;;;;5027313;28;20481;-40
2021/08/15 04:08:06;;;;;;;10.18;5.78;;;17.60;99.90;;;;;;5028960;28;20047;-41
2021/08/15 04:10:32;;;;;;;10.57;5.70;;;17.60;99.90;;;;;;5028845;28;20064;-40
2021/08/15 04:12:58;;;;;;;10.07;6.00;;;17.60;99.90;;;;;;5027997;28;20091;-41
2021/08/15 04:15:24;;;;;;;10.25;6.28;;;17.60;99.90;;;;;;5028417;28;20018;-40
2021/08/15 04:17:50;;;;;;;9.25;5.78;;;17.60;99.90;;;;;;5027862;28;20069;-36
2021/08/15 04:20:15;;;;;;;9.30;6.10;;;17.60;99.90;;;;;;5027940;28;20068;-39
2021/08/15 04:22:41;;;;;;;8.85;6.10;;;17.60;99.90;;;;;;5027906;28;20452;-39
2021/08/15 04:25:07;;;;;;;8.43;5.97;;;17.60;99.90;;;;;;5027872;28;20018;-40
2021/08/15 04:27:33;;;;;;;8.60;6.15;;;17.60;99.90;;;;;;5028098;28;20041;-36
2021/08/15 04:29:59;;;;;;;9.27;6.07;;;17.60;99.90;;;;;;5027742;28;20156;-40
2021/08/15 04:32:24;;;;;;;9.57;6.10;;;17.60;99.90;;;;;;5027835;28;20021;-40
2021/08/15 04:34:50;;;;;;;8.45;5.47;;;17.70;99.90;;;;;;5027852;28;20104;-40
2021/08/15 04:37:17;;;;;;;10.10;6.55;;;17.70;99.90;;;;;;5028039;28;20029;-40
2021/08/15 04:39:45;;;;;;;9.18;5.93;;;17.70;99.90;;;;;;5027735;28;20018;-37
2021/08/15 04:42:11;;;;;;;9.88;6.15;;;17.70;99.90;;;;;;5028163;28;20448;-36
2021/08/15 04:44:37;;;;;;;8.25;6.18;;;17.70;99.90;;;;;;5028508;28;20453;-41
2021/08/15 04:47:03;;;;;;;8.85;6.25;;;17.60;99.90;;;;;;5027266;28;20162;-39
2021/08/15 04:49:29;;;;;;;9.85;6.60;;;17.70;99.90;;;;;;5028378;28;20048;-35
2021/08/15 04:51:55;;;;;;;9.20;6.03;;;17.70;99.90;;;;;;5027011;28;20064;-41
2021/08/15 04:54:26;;;;;;;9.95;6.30;;;17.70;99.90;;;;;;5028226;28;20030;-41
2021/08/15 04:56:52;;;;;;;7.63;5.68;;;17.70;99.90;;;;;;5027253;28;20018;-40
2021/08/15 04:59:17;;;;;;;9.55;6.43;;;17.70;99.90;;;;;;5028152;28;20452;-41
2021/08/15 05:01:45;;;;;;;9.60;6.22;;;17.80;99.90;;;;;;5028958;28;20026;-39
2021/08/15 05:04:11;;;;;;;7.95;5.97;;;17.80;99.90;;;;;;5031586;28;20037;-40
2021/08/15 05:06:37;;;;;;;9.60;6.07;;;17.80;99.90;;;;;;5031330;28;20030;-40
2021/08/15 05:09:03;;;;;;;7.95;6.45;;;17.80;99.90;;;;;;5031905;28;20033;-40
2021/08/15 05:11:28;;;;;;;8.20;5.85;;;17.80;99.90;;;;;;5031990;28;20024;-41
2021/08/15 05:13:54;;;;;;;9.50;5.88;;;17.90;99.90;;;;;;5020377;28;20026;-39
2021/08/15 05:16:20;;;;;;;8.13;6.43;;;17.90;99.90;;;;;;5031126;28;20099;-41
2021/08/15 05:18:45;;;;;;;9.18;6.35;;;17.90;99.90;;;;;;5031318;28;20112;-40
2021/08/15 05:21:11;;;;;;;8.43;6.60;;;17.90;99.90;;;;;;5031967;28;20022;-38
2021/08/15 05:23:36;;;;;;;9.05;6.60;;;17.90;99.90;;;;;;5031358;28;20096;-40
2021/08/15 05:26:02;;;;;;;9.10;6.72;;;17.90;99.90;;;;;;5031322;28;20465;-37
2021/08/15 05:28:28;;;;;;;9.10;7.05;;;17.90;99.90;;;;;;5030628;28;20037;-38
2021/08/15 05:30:54;;;;;;;9.95;6.97;;;17.90;99.90;;;;;;5031140;28;20026;-42
2021/08/15 05:33:19;;;;;;;9.43;6.95;;;17.90;99.90;;;;;;5030942;28;20037;-40
2021/08/15 05:35:45;;;;;;;10.75;7.88;;;18.00;99.90;;;;;;5030470;28;20461;-36
2021/08/15 05:38:10;;;;;;;9.48;7.05;;;18.00;99.90;;;;;;5031398;28;20014;-40
2021/08/15 05:40:39;;;;;;;7.95;6.97;;;18.00;99.90;;;;;;5031199;28;20029;-41
2021/08/15 05:43:05;;;;;;;11.18;6.72;;;18.00;99.90;;;;;;5030293;28;20532;-40
2021/08/15 05:45:30;;;;;;;10.02;7.30;;;18.00;99.90;;;;;;5031021;28;20112;-42
2021/08/15 05:47:56;;;;;;;9.60;7.65;;;18.00;99.90;;;;;;5030607;28;20084;-40
2021/08/15 05:50:21;;;;;;;9.90;7.25;;;18.00;99.90;;;;;;5030804;28;20046;-41
2021/08/15 05:52:47;;;;;;;9.98;7.90;;;18.00;99.90;;;;;;5030206;28;20076;-39
2021/08/15 05:55:13;;;;;;;10.65;7.53;;;18.00;99.90;;;;;;5030677;28;20055;-36
2021/08/15 05:57:39;;;;;;;10.02;7.75;;;18.00;99.90;;;;;;5029931;28;20469;-36
2021/08/15 06:00:06;;;;;;;8.15;6.63;;;18.00;99.90;;;;;;5031069;28;20022;-39
2021/08/15 06:02:31;;;;;;;13.95;8.45;;;18.10;99.90;;;;;;5030736;28;20021;-40
2021/08/15 06:04:57;;;;;;;11.20;8.50;;;18.20;99.90;;;;;;5030109;28;20026;-40
2021/08/15 06:07:23;;;;;;;11.90;8.73;;;18.30;99.90;;;;;;5030542;28;20152;-39
2021/08/15 06:09:51;;;;;;;12.55;9.05;;;18.30;99.90;;;;;;5029539;28;20033;-37
2021/08/15 06:12:17;;;;;;;13.98;8.40;;;18.40;99.90;;;;;;5029696;28;20665;-37
2021/08/15 06:14:43;;;;;;;10.60;9.30;;;18.40;99.90;;;;;;5029180;28;20029;-39
2021/08/15 06:17:08;;;;;;;10.77;8.95;;;18.50;99.90;;;;;;5030291;28;20026;-36
2021/08/15 06:19:34;;;;;;;11.50;9.20;;;18.50;99.90;;;;;;5029307;28;20021;-42
2021/08/15 06:22:00;;;;;;;11.48;8.38;;;18.60;99.90;;;;;;5030483;28;20120;-40
2021/08/15 06:24:27;;;;;;;12.32;9.73;;;18.60;99.90;;;;;;5030209;28;20044;-41
2021/08/15 06:26:52;;;;;;;10.77;9.57;;;18.60;99.90;;;;;;5029194;28;20367;-41
2021/08/15 06:29:18;;;;;;;9.60;7.85;;;18.60;99.90;;;;;;5030056;28;20048;-36
2021/08/15 06:31:43;;;;;;;12.38;10.20;;;18.60;99.90;;;;;;5029282;28;20035;-42
2021/08/15 06:34:09;;;;;;;13.18;10.52;;;18.60;99.90;;;;;;5029687;28;20087;-36
2021/08/15 06:36:35;;;;;;;15.48;10.27;;;18.70;99.90;;;;;;5030103;28;20029;-37
2021/08/15 06:39:00;;;;;;;14.23;10.73;;;18.70;99.90;;;;;;5028207;28;20031;-41
2021/08/15 06:41:26;;;;;;;12.02;10.15;;;18.80;99.90;;;;;;5030040;28;20018;-40
2021/08/15 06:43:51;;;;;;;15.10;10.25;;;18.80;99.90;;;;;;5029251;28;20113;-41
2021/08/15 06:46:17;;;;;;;11.90;9.43;;;18.90;99.90;;;;;;5029135;28;20029;-42
2021/08/15 06:48:44;;;;;;;10.73;8.45;;;18.90;99.90;;;;;;5030044;28;20034;-40
2021/08/15 06:51:11;;;;;;;12.20;9.40;;;18.90;99.90;;;;;;5029481;28;20022;-40
2021/08/15 06:53:38;;;;;;;13.38;10.85;;;18.90;99.90;;;;;;5029610;28;20025;-38
2021/08/15 06:56:05;;;;;;;12.43;9.88;;;18.90;99.90;;;;;;5029622;28;20044;-41
2021/08/15 06:58:32;;;;;;;14.55;10.60;;;18.90;99.90;;;;;;5030240;28;20112;-40
2021/08/15 07:00:57;;;;;;;12.63;10.73;;;18.90;99.90;;;;;;5028575;28;20417;-39
2021/08/15 07:03:23;;;;;;;11.38;9.73;;;18.90;99.90;;;;;;5029477;28;20496;-37
2021/08/15 07:05:49;;;;;;;12.98;9.73;;;19.00;99.90;;;;;;5028828;28;20071;-40
2021/08/15 07:08:15;;;;;;;11.30;9.48;;;19.00;99.90;;;;;;5029364;28;20069;-37
2021/08/15 07:10:40;;;;;;;12.88;9.70;;;19.00;99.90;;;;;;5029156;28;20014;-41
2021/08/15 07:13:06;;;;;;;9.77;8.45;;;19.10;99.90;;;;;;5028776;28;20056;-38
2021/08/15 07:15:32;;;;;;;10.30;8.75;;;19.20;99.90;;;;;;5028722;28;20187;-42
2021/08/15 07:17:58;;;;;;;12.38;10.75;;;19.30;99.90;;;;;;5028742;28;20116;-36
2021/08/15 07:20:24;;;;;;;10.85;9.75;;;19.40;99.90;;;;;;5029162;28;20021;-36
2021/08/15 07:22:50;;;;;;;12.45;9.77;;;19.40;99.90;;;;;;5027803;28;20374;-42
2021/08/15 07:25:16;;;;;;;12.02;10.63;;;19.50;99.90;;;;;;5028811;28;20037;-40
2021/08/15 07:27:42;;;;;;;12.38;9.32;;;19.50;99.90;;;;;;5028208;28;20024;-40
2021/08/15 07:30:08;;;;;;;11.82;9.27;;;19.50;99.90;;;;;;5028662;28;20060;-41
2021/08/15 07:32:34;;;;;;;11.07;9.35;;;19.50;99.90;;;;;;5028772;28;20021;-42
2021/08/15 07:35:01;;;;;;;9.35;8.32;;;19.50;99.90;;;;;;5028297;28;20083;-42
2021/08/15 07:37:28;;;;;;;12.45;9.55;;;19.60;99.90;;;;;;5028756;28;20022;-39
2021/08/15 07:39:53;;;;;;;11.00;8.85;;;19.70;99.90;;;;;;5028945;28;20021;-36
2021/08/15 07:42:20;;;;;;;11.18;9.30;;;19.70;99.90;;;;;;5028346;28;20072;-37
2021/08/15 07:44:46;;;;;;;9.65;7.93;;;19.80;99.90;;;;;;5028585;28;20031;-40
2021/08/15 07:47:12;;;;;;;11.75;9.82;;;20.00;99.90;;;;;;5028786;28;20254;-43
2021/08/15 07:49:38;;;;;;;9.85;8.48;;;20.10;99.90;;;;;;5028477;28;20033;-39
2021/08/15 07:52:04;;;;;;;9.65;8.43;;;20.20;99.90;;;;;;5028326;28;20036;-39
2021/08/15 07:54:29;;;;;;;10.20;8.57;;;20.30;99.90;;;;;;5029475;28;20034;-38
2021/08/15 07:56:55;;;;;;;10.18;8.27;;;20.50;99.90;;;;;;5027606;28;20049;-40
2021/08/15 07:59:21;;;;;;;10.60;8.40;;;20.60;99.90;;;;;;5029187;28;20056;-37
2021/08/15 08:01:51;;;;;;;9.98;7.63;;;20.60;99.90;;;;;;5028035;28;20041;-41
2021/08/15 08:04:17;;;;;;;11.32;8.10;;;20.80;99.90;;;;;;5029091;28;20017;-40
2021/08/15 08:06:42;;;;;;;10.23;7.65;;;20.80;99.90;;;;;;5028783;28;20033;-37
2021/08/15 08:09:08;;;;;;;14.73;9.00;;;20.90;99.90;;;;;;5027815;28;20032;-40
2021/08/15 08:11:34;;;;;;;10.10;7.57;;;20.90;99.90;;;;;;5028762;28;20358;-43
2021/08/15 08:13:59;;;;;;;10.68;7.60;;;20.90;99.90;;;;;;5027999;28;20102;-41
2021/08/15 08:16:25;;;;;;;13.15;8.23;;;20.90;99.90;;;;;;5028670;28;20053;-41
2021/08/15 08:18:51;;;;;;;11.90;8.23;;;20.90;99.90;;;;;;5027616;28;20660;-41
2021/08/15 08:21:17;;;;;;;10.25;7.65;;;20.90;99.90;;;;;;5028223;28;20362;-44
2021/08/15 08:23:43;;;;;;;12.65;7.55;;;20.80;99.90;;;;;;5028496;28;20391;-42
2021/08/15 08:26:09;;;;;;;11.32;7.80;;;20.70;99.90;;;;;;5027835;28;20026;-45
2021/08/15 08:28:35;;;;;;;9.32;7.20;;;20.60;99.90;;;;;;5028360;28;20030;-40
2021/08/15 08:31:00;;;;;;;9.82;7.45;;;20.60;99.90;;;;;;5027965;28;20037;-43
2021/08/15 08:33:27;;;;;;;11.02;8.32;;;20.60;99.90;;;;;;5028012;28;20025;-39
2021/08/15 08:35:53;;;;;;;11.65;7.50;;;20.60;99.90;;;;;;5028240;28;20030;-39
2021/08/15 08:38:18;;;;;;;9.23;7.30;;;20.60;99.90;;;;;;5032517;28;20076;-43
2021/08/15 08:40:47;;;;;;;10.05;6.93;;;20.70;99.90;;;;;;5032188;28;20116;-37
2021/08/15 08:43:13;;;;;;;9.25;6.38;;;20.80;99.90;;;;;;5032612;28;20082;-42
2021/08/15 08:45:41;;;;;;;10.93;6.60;;;21.00;99.90;;;;;;5031603;28;20473;-41
2021/08/15 08:48:07;;;;;;;9.55;6.38;;;21.10;99.80;;;;;;5032303;28;20068;-42
2021/08/15 08:50:33;;;;;;;10.20;6.30;;;21.30;99.40;;;;;;5030964;28;20476;-40
2021/08/15 08:52:59;;;;;;;10.32;6.20;;;21.40;98.80;;;;;;5031135;28;20030;-43
2021/08/15 08:55:25;;;;;;;8.75;5.85;;;21.40;98.30;;;;;;5031956;28;20065;-41
2021/08/15 08:57:51;;;;;;;6.50;4.85;;;21.40;97.90;;;;;;5031147;28;20112;-43
2021/08/15 09:00:18;;;;;;;9.65;6.32;;;21.40;98.20;;;;;;5031038;28;20113;-44
2021/08/15 09:02:44;;;;;;;10.57;5.90;;;21.50;97.20;;;;;;5032096;28;20476;-41
2021/08/15 09:05:10;;;;;;;8.80;5.22;;;21.50;97.30;;;;;;5031431;28;20552;-42
2021/08/15 09:07:38;;;;;;;12.38;6.18;;;21.50;97.60;;;;;;5031548;28;20026;-41
2021/08/15 09:10:07;;;;;;;7.20;5.47;;;21.40;97.60;;;;;;5031867;28;20479;-39
2021/08/15 09:12:44;;;;;;;9.73;5.82;;;21.40;97.80;;;;;;5032019;28;20049;-42
2021/08/15 09:15:15;;;;;;;9.80;5.93;;;21.30;98.10;;;;;;5030749;28;20030;-42
2021/08/15 09:17:41;;;;;;;8.77;4.65;;;21.30;98.10;;;;;;5031306;28;20030;-36
2021/08/15 09:20:09;;;;;;;10.20;5.03;;;21.30;98.20;;;;;;5031513;28;20022;-41
2021/08/15 09:22:37;;;;;;;7.85;4.90;;;21.30;98.10;;;;;;5030732;28;20022;-36
2021/08/15 09:25:10;;;;;;;7.38;4.50;;;21.30;98.00;;;;;;5031621;28;20028;-44
2021/08/15 09:27:56;;;;;;;7.00;4.95;;;21.30;98.00;;;;;;5031141;28;20049;-43
2021/08/15 09:30:30;;;;;;;9.43;4.80;;;21.40;97.80;;;;;;5032077;28;20037;-43
2021/08/15 09:33:08;;;;;;;8.75;4.60;;;21.50;97.70;;;;;;5030409;28;20075;-40
2021/08/15 09:35:36;;;;;;;8.60;4.65;;;21.50;97.70;;;;;;5031046;28;20033;-41
2021/08/15 09:38:07;;;;;;;7.07;4.38;;;21.70;97.60;;;;;;5030224;28;20091;-42
2021/08/15 09:40:40;;;;;;;7.80;4.40;;;21.80;97.50;;;;;;5031120;28;20108;-38
2021/08/15 09:43:08;;;;;;;7.72;4.80;;;21.80;97.40;;;;;;5030214;28;20033;-43
2021/08/15 09:45:46;;;;;;;9.27;4.82;;;22.00;97.30;;;;;;5031313;28;20013;-42
2021/08/15 09:48:19;;;;;;;7.97;4.22;;;22.10;97.10;;;;;;5020895;28;20029;-42
2021/08/15 09:51:09;;;;;;;7.82;4.28;;;22.20;97.20;;;;;;5030436;28;20022;-42
2021/08/15 09:53:38;;;;;;;8.15;4.70;;;22.30;97.20;;;;;;5023318;28;20548;-43
2021/08/15 09:56:04;;;;;;;7.32;4.85;;;22.40;97.00;;;;;;5030193;28;20026;-42
2021/08/15 09:58:30;;;;;;;6.97;4.10;;;22.40;96.90;;;;;;5030974;28;20117;-41
2021/08/15 10:00:56;;;;;;;8.57;3.78;;;22.50;96.70;;;;;;5030207;28;20100;-41
2021/08/15 10:03:22;;;;;;;7.53;4.07;;;22.50;96.70;;;;;;5030498;28;20022;-44
2021/08/15 10:05:49;;;;;;;6.18;4.00;;;22.50;96.60;;;;;;5030219;28;20060;-41
2021/08/15 10:08:15;;;;;;;7.90;3.80;;;22.50;96.00;;;;;;5030886;28;20037;-44
2021/08/15 10:10:40;;;;;;;6.82;4.10;;;22.60;95.70;;;;;;5029512;28;20043;-42
2021/08/15 10:13:07;;;;;;;4.88;3.70;;;22.60;95.50;;;;;;5029920;28;20464;-43
2021/08/15 10:15:35;;;;;;;4.93;3.40;;;22.70;95.30;;;;;;5031007;28;20079;-41
2021/08/15 10:18:04;;;;;;;5.93;3.75;;;22.70;95.30;;;;;;5029221;28;20492;-42
2021/08/15 10:20:31;;;;;;;8.60;3.95;;;22.80;94.90;;;;;;5010912;28;20065;-44
2021/08/15 10:23:08;;;;;;;5.60;3.60;;;22.80;94.40;;;;;;5024056;28;20434;-40
2021/08/15 10:25:41;;;;;;;5.03;3.40;;;22.90;94.20;;;;;;5030775;28;20123;-42
2021/08/15 10:28:08;;;;;;;5.43;3.00;;;22.90;94.30;;;;;;5030139;28;20044;-42
2021/08/15 10:30:33;;;;;;;6.70;3.38;;;22.90;94.30;;;;;;5030610;28;20071;-41
2021/08/15 10:32:58;;;;;;;5.75;2.95;;;22.90;94.30;;;;;;5029193;28;20493;-43
2021/08/15 10:35:35;;;;;;;4.75;3.13;;;22.90;94.50;;;;;;5030104;28;20074;-43
2021/08/15 10:38:28;;;;;;;6.32;3.38;;;23.00;94.30;;;;;;5028981;28;20225;-43
2021/08/15 10:40:57;;;;;;;6.25;3.28;;;22.90;94.10;;;;;;5029978;28;20526;-40
2021/08/15 10:43:22;;;;;;;4.22;2.40;;;22.90;93.80;;;;;;5028955;28;20028;-38
2021/08/15 10:46:07;;;;;;;4.82;3.20;;;23.00;93.20;;;;;;5029029;28;20026;-42
2021/08/15 10:48:49;;;;;;;4.03;2.95;;;23.00;93.00;;;;;;5029759;28;20045;-37
2021/08/15 10:51:41;;;;;;;4.25;2.95;;;23.00;92.70;;;;;;5030399;28;20017;-41
2021/08/15 10:54:08;;;;;;;;;;;23.00;92.90;;;;;;5029068;28;20049;-40
2021/08/15 10:56:52;;;;;;;3.65;2.83;;;23.00;92.60;;;;;;5029826;28;19995;-39
2021/08/15 10:59:37;;;;;;;6.05;3.13;;;22.90;92.80;;;;;;5028107;28;20021;-39
2021/08/15 11:02:16;;;;;;;5.72;3.20;;;23.00;92.90;;;;;;5010678;28;20038;-39
2021/08/15 11:04:59;;;;;;;4.75;2.95;;;23.00;92.80;;;;;;5029143;28;20052;-38
2021/08/15 11:07:41;;;;;;;5.60;3.20;;;23.10;93.00;;;;;;5029334;28;20021;-40
2021/08/15 11:10:12;;;;;;;4.03;2.78;;;23.10;92.80;;;;;;5029382;28;20029;-40
2021/08/15 11:13:18;;;;;;;4.32;2.70;;;23.20;92.90;;;;;;5028876;28;20094;-41
2021/08/15 11:15:44;;;;;;;4.97;2.50;;;23.30;93.00;;;;;;5028583;28;20037;-41
2021/08/15 11:18:11;;;;;;;4.63;2.78;;;23.50;92.50;;;;;;5028982;28;20033;-41
2021/08/15 11:20:51;;;;;;;3.05;2.05;;;23.80;92.20;;;;;;5028807;28;20021;-43
2021/08/15 11:23:19;;;;;;;3.53;2.30;;;24.00;92.00;;;;;;5029035;28;20021;-40
2021/08/15 11:25:46;;;;;;;4.68;2.58;;;24.20;91.50;;;;;;5029072;28;20025;-43
2021/08/15 11:28:13;;;;;;;3.90;2.38;;;24.30;91.30;;;;;;5029033;28;20487;-42
2021/08/15 11:30:39;;;;;;;3.47;2.45;;;24.30;91.40;;;;;;5029025;28;20026;-42
2021/08/15 11:33:08;;;;;;;4.10;2.10;;;24.40;91.40;;;;;;5029502;28;20017;-42
2021/08/15 11:35:44;;;;;;;4.78;2.20;;;24.40;91.50;;;;;;5028508;28;20026;-40
2021/08/15 11:38:12;;;;;;;4.43;2.42;;;24.50;91.80;;;;;;5009963;28;20034;-38
2021/08/15 11:40:54;;;;;;;3.40;2.30;;;24.60;91.70;;;;;;5024455;28;20063;-39
2021/08/15 11:43:22;;;;;;;3.93;2.13;;;24.70;91.30;;;;;;5009740;28;20018;-38
2021/08/15 11:45:54;;;;;;;3.53;2.03;;;24.60;91.20;;;;;;5023728;28;20268;-41
2021/08/15 11:48:23;;;;;;;4.25;2.33;;;24.60;91.40;;;;;;5028201;28;20041;-43
2021/08/15 11:50:57;;;;;;;4.43;2.50;;;24.60;91.60;;;;;;5028940;28;20060;-42
2021/08/15 11:53:29;;;;;;;3.50;2.30;;;24.60;91.90;;;;;;5029346;28;20545;-42
2021/08/15 11:55:57;;;;;;;2.63;2.38;;;24.60;91.80;;;;;;5027732;28;20022;-42
2021/08/15 11:58:23;;;;;;;3.88;2.50;;;24.60;91.90;;;;;;5028978;28;20493;-39
2021/08/15 12:00:49;;;;;;;3.00;2.20;;;24.60;92.00;;;;;;5028266;28;20044;-42
2021/08/15 12:03:19;;;;;;;2.95;2.05;;;24.70;92.30;;;;;;5028629;28;20021;-41
2021/08/15 12:05:56;;;;;;;5.32;2.20;;;24.70;92.30;;;;;;5028499;28;20427;-42
2021/08/15 12:08:32;;;;;;;2.85;1.98;;;24.70;92.60;;;;;;5028660;28;20018;-41
2021/08/15 12:10:58;;;;;;;3.03;1.90;;;24.70;92.80;;;;;;5029591;28;20023;-41
2021/08/15 12:13:31;;;;;;;2.50;1.83;;;24.80;92.40;;;;;;5032441;28;20042;-41
2021/08/15 12:16:02;;;;;;;2.72;1.90;;;24.80;92.50;;;;;;5032202;28;20017;-40
2021/08/15 12:18:52;;;;;;;3.72;1.85;;;24.80;92.60;;;;;;5033022;28;20091;-40
2021/08/15 12:21:37;;;;;;;3.00;1.90;;;24.80;92.50;;;;;;5032294;28;20052;-42
2021/08/15 12:24:18;;;;;;;2.95;1.77;;;24.70;92.40;;;;;;5031848;28;20029;-38
2021/08/15 12:26:44;;;;;;;2.78;2.10;;;24.60;92.50;;;;;;5032597;28;20022;-44
2021/08/15 12:29:23;;;;;;;1.90;1.50;;;24.60;92.70;;;;;;5031967;28;20538;-43
2021/08/15 12:32:10;;;;;;;2.85;1.65;;;24.60;92.80;;;;;;5031306;28;20104;-38
2021/08/15 12:34:43;;;;;;;2.28;1.52;;;24.60;92.70;;;;;;5032496;28;20030;-40
2021/08/15 12:37:18;;;;;;;3.17;1.60;;;24.60;92.80;;;;;;5032057;28;20327;-37
2021/08/15 12:39:47;;;;;;;2.28;1.55;;;24.70;93.00;;;;;;5031787;28;20060;-39
2021/08/15 12:42:32;;;;;;;2.67;1.60;;;24.80;93.00;;;;;;5033040;28;20480;-37
2021/08/15 12:45:03;;;;;;;3.38;2.03;;;25.00;93.10;;;;;;5031994;28;20465;-43
2021/08/15 12:47:36;;;;;;;2.25;1.50;;;25.10;92.90;;;;;;5032940;28;20112;-43